createdAt,value
2019-03-09T00:00:33.858Z,6.60
2019-03-09T00:03:02.604Z,6.60
2019-03-09T00:05:30.980Z,6.50
2019-03-09T00:07:59.665Z,6.50
2019-03-09T00:10:28.016Z,6.50
2019-03-09T00:12:56.681Z,6.50
2019-03-09T00:15:25.384Z,6.50
2019-03-09T00:17:53.695Z,6.60
2019-03-09T00:20:22.142Z,6.60
2019-03-09T00:22:55.928Z,6.60
2019-03-09T00:25:29.354Z,6.60
2019-03-09T00:28:12.629Z,6.60
2019-03-09T00:31:00.773Z,6.70
2019-03-09T00:33:29.878Z,6.70
2019-03-09T00:35:58.551Z,6.70
2019-03-09T00:38:27.014Z,6.70
2019-03-09T00:40:55.622Z,6.70
2019-03-09T00:43:24.320Z,6.70
2019-03-09T00:45:52.948Z,6.80
2019-03-09T00:48:21.373Z,6.70
2019-03-09T00:50:49.726Z,6.70
2019-03-09T00:53:18.295Z,6.70
2019-03-09T00:55:46.478Z,6.80
2019-03-09T00:58:15.069Z,6.70
2019-03-09T01:00:43.573Z,6.70
2019-03-09T01:03:12.118Z,6.70
2019-03-09T01:05:40.922Z,6.70
2019-03-09T01:08:09.297Z,6.70
2019-03-09T01:10:37.643Z,6.80
2019-03-09T01:13:05.881Z,6.80
2019-03-09T01:15:35.151Z,6.80
2019-03-09T01:18:03.972Z,6.80
2019-03-09T01:20:32.211Z,6.80
2019-03-09T01:23:01.305Z,6.80
2019-03-09T01:25:29.831Z,6.70
2019-03-09T01:27:58.511Z,6.70
2019-03-09T01:30:26.752Z,6.70
2019-03-09T01:32:55.297Z,6.60
2019-03-09T01:35:23.980Z,6.60
2019-03-09T01:37:52.336Z,6.40
2019-03-09T01:40:21.314Z,6.50
2019-03-09T01:42:50.076Z,6.50
2019-03-09T01:45:18.747Z,6.50
2019-03-09T01:47:47.037Z,6.50
2019-03-09T01:50:15.759Z,6.40
2019-03-09T01:52:44.238Z,6.30
2019-03-09T01:55:12.939Z,6.30
2019-03-09T01:57:41.484Z,6.40
2019-03-09T02:00:10.841Z,6.30
2019-03-09T02:02:39.211Z,6.20
2019-03-09T02:05:09.066Z,6.20
2019-03-09T02:07:37.453Z,6.20
2019-03-09T02:10:07.714Z,6.10
2019-03-09T02:12:36.003Z,6.10
2019-03-09T02:15:05.383Z,6.10
2019-03-09T02:17:34.048Z,6.10
2019-03-09T02:20:03.140Z,6.10
2019-03-09T02:22:31.384Z,6.10
2019-03-09T02:24:59.896Z,6.10
2019-03-09T02:27:28.466Z,6.10
2019-03-09T02:29:56.930Z,6.10
2019-03-09T02:32:25.551Z,6.10
2019-03-09T02:34:54.021Z,6.10
2019-03-09T02:37:22.272Z,6.00
2019-03-09T02:39:56.271Z,6.00
2019-03-09T02:42:24.644Z,6.00
2019-03-09T02:44:52.958Z,6.10
2019-03-09T02:47:21.360Z,6.10
2019-03-09T02:49:50.136Z,6.10
2019-03-09T02:52:18.510Z,6.10
2019-03-09T02:54:47.153Z,6.10
2019-03-09T02:57:15.608Z,6.10
2019-03-09T02:59:43.806Z,6.10
2019-03-09T03:02:20.357Z,6.10
2019-03-09T03:04:48.683Z,6.10
2019-03-09T03:07:17.018Z,6.10
2019-03-09T03:09:45.657Z,6.10
2019-03-09T03:12:14.447Z,6.10
2019-03-09T03:14:42.767Z,6.10
2019-03-09T03:17:11.506Z,6.10
2019-03-09T03:19:40.464Z,6.10
2019-03-09T03:22:08.959Z,6.20
2019-03-09T03:24:37.255Z,6.20
2019-03-09T03:27:05.546Z,6.20
2019-03-09T03:29:34.015Z,6.30
2019-03-09T03:32:02.562Z,6.20
2019-03-09T03:34:31.400Z,6.10
2019-03-09T03:36:59.723Z,6.10
2019-03-09T03:39:28.195Z,6.10
2019-03-09T03:41:56.845Z,6.10
2019-03-09T03:44:25.459Z,6.10
2019-03-09T03:46:54.103Z,6.10
2019-03-09T03:49:24.777Z,6.00
2019-03-09T03:51:53.177Z,6.00
2019-03-09T03:54:21.764Z,5.90
2019-03-09T03:56:50.600Z,5.90
2019-03-09T03:59:19.172Z,5.80
2019-03-09T04:01:47.594Z,5.80
2019-03-09T04:04:16.191Z,5.80
2019-03-09T04:06:44.935Z,5.80
2019-03-09T04:09:13.554Z,5.70
2019-03-09T04:11:42.099Z,5.60
2019-03-09T04:14:10.743Z,5.60
2019-03-09T04:16:39.044Z,5.60
2019-03-09T04:19:07.568Z,5.60
2019-03-09T04:21:36.106Z,5.60
2019-03-09T04:24:04.511Z,5.50
2019-03-09T04:26:32.841Z,5.50
2019-03-09T04:29:01.657Z,5.50
2019-03-09T04:31:30.283Z,5.40
2019-03-09T04:34:00.280Z,5.40
2019-03-09T04:36:28.878Z,5.50
2019-03-09T04:38:57.245Z,5.50
2019-03-09T04:41:25.903Z,5.50
2019-03-09T04:43:54.276Z,5.50
2019-03-09T04:46:22.980Z,5.40
2019-03-09T04:48:51.318Z,5.40
2019-03-09T04:51:19.750Z,5.40
2019-03-09T04:53:48.066Z,5.30
2019-03-09T04:56:16.505Z,5.30
2019-03-09T04:58:44.770Z,5.30
2019-03-09T05:01:13.610Z,5.30
2019-03-09T05:03:41.935Z,5.30
2019-03-09T05:06:15.117Z,5.20
2019-03-09T05:09:09.719Z,5.20
2019-03-09T05:11:38.168Z,5.20
2019-03-09T05:14:13.789Z,5.20
2019-03-09T05:16:42.121Z,5.10
2019-03-09T05:19:10.601Z,5.10
2019-03-09T05:21:39.319Z,5.10
2019-03-09T05:24:08.009Z,5.10
2019-03-09T05:26:36.419Z,5.10
2019-03-09T05:29:04.742Z,5.20
2019-03-09T05:31:33.141Z,5.20
2019-03-09T05:34:01.796Z,5.20
2019-03-09T05:36:30.222Z,5.20
2019-03-09T05:38:58.601Z,5.30
2019-03-09T05:41:27.291Z,5.30
2019-03-09T05:43:55.651Z,5.30
2019-03-09T05:46:24.039Z,5.20
2019-03-09T05:48:52.688Z,5.20
2019-03-09T05:51:21.163Z,5.20
2019-03-09T05:53:49.826Z,5.10
2019-03-09T05:56:18.480Z,5.20
2019-03-09T05:58:47.216Z,5.20
2019-03-09T06:01:15.472Z,5.20
2019-03-09T06:03:43.906Z,5.10
2019-03-09T06:06:15.649Z,5.10
2019-03-09T06:08:44.778Z,5.10
2019-03-09T06:11:13.364Z,5.20
2019-03-09T06:13:42.072Z,5.20
2019-03-09T06:16:10.426Z,5.20
2019-03-09T06:18:38.785Z,5.20
2019-03-09T06:21:07.548Z,5.30
2019-03-09T06:23:36.198Z,5.50
2019-03-09T06:26:04.676Z,5.50
2019-03-09T06:28:33.582Z,5.50
2019-03-09T06:31:01.935Z,5.40
2019-03-09T06:33:37.785Z,5.40
2019-03-09T06:37:06.236Z,5.40
2019-03-09T06:39:42.099Z,5.50
2019-03-09T06:42:39.072Z,5.60
2019-03-09T06:45:11.269Z,5.60
2019-03-09T06:47:40.068Z,5.70
2019-03-09T06:50:11.176Z,5.70
2019-03-09T06:52:39.559Z,5.70
2019-03-09T06:55:09.301Z,5.70
2019-03-09T06:57:37.862Z,5.70
2019-03-09T07:00:35.476Z,5.80
2019-03-09T07:03:04.595Z,5.80
2019-03-09T07:05:32.809Z,5.90
2019-03-09T07:08:01.186Z,6.00
2019-03-09T07:10:29.598Z,6.10
2019-03-09T07:12:57.945Z,6.20
2019-03-09T07:15:35.445Z,6.20
2019-03-09T07:18:13.439Z,6.20
2019-03-09T07:20:41.857Z,6.40
2019-03-09T07:23:10.192Z,6.50
2019-03-09T07:25:38.706Z,6.60
2019-03-09T07:28:09.978Z,6.70
2019-03-09T07:30:38.373Z,6.80
2019-03-09T07:33:06.790Z,6.80
2019-03-09T07:35:35.041Z,6.80
2019-03-09T07:38:04.077Z,6.90
2019-03-09T07:40:32.925Z,6.80
2019-03-09T07:43:01.412Z,6.80
2019-03-09T07:45:29.917Z,7.00
2019-03-09T07:47:58.286Z,7.00
2019-03-09T07:50:26.712Z,7.20
2019-03-09T07:52:55.530Z,7.30
2019-03-09T07:55:24.471Z,7.20
2019-03-09T07:57:59.372Z,7.20
2019-03-09T08:00:28.218Z,7.20
2019-03-09T08:02:56.740Z,7.30
2019-03-09T08:05:25.387Z,7.30
2019-03-09T08:07:54.004Z,7.30
2019-03-09T08:10:22.615Z,7.40
2019-03-09T08:12:51.259Z,7.50
2019-03-09T08:15:19.905Z,7.50
2019-03-09T08:17:48.746Z,7.50
2019-03-09T08:20:17.176Z,7.50
2019-03-09T08:22:45.748Z,7.60
2019-03-09T08:25:14.757Z,7.70
2019-03-09T08:27:43.411Z,7.70
2019-03-09T08:30:20.725Z,7.70
2019-03-09T08:32:49.056Z,7.80
2019-03-09T08:35:18.967Z,7.70
2019-03-09T08:37:48.318Z,7.60
2019-03-09T08:40:17.353Z,7.70
2019-03-09T08:42:45.741Z,7.80
2019-03-09T08:45:16.248Z,7.80
2019-03-09T08:47:52.068Z,7.90
2019-03-09T08:50:17.528Z,8.10
2019-03-09T08:52:45.980Z,8.20
2019-03-09T08:55:17.102Z,8.60
2019-03-09T08:57:45.811Z,8.90
2019-03-09T09:00:17.632Z,9.30
2019-03-09T09:02:46.295Z,9.20
2019-03-09T09:05:14.594Z,9.80
2019-03-09T09:07:42.993Z,10.80
2019-03-09T09:10:12.245Z,11.50
2019-03-09T09:12:40.747Z,12.40
2019-03-09T09:15:10.478Z,13.20
2019-03-09T09:17:39.664Z,13.80
2019-03-09T09:20:11.759Z,13.30
2019-03-09T09:22:40.486Z,14.30
2019-03-09T09:25:09.350Z,14.40
2019-03-09T09:27:37.821Z,15.00
2019-03-09T09:30:10.984Z,15.10
2019-03-09T09:32:39.427Z,14.90
2019-03-09T09:35:09.280Z,14.90
2019-03-09T09:37:38.109Z,15.10
2019-03-09T09:40:09.144Z,14.90
2019-03-09T09:42:37.572Z,14.30
2019-03-09T09:45:07.846Z,13.90
2019-03-09T09:47:36.557Z,14.10
2019-03-09T09:50:05.783Z,13.60
2019-03-09T09:52:34.137Z,12.90
2019-03-09T09:55:02.443Z,12.90
2019-03-09T09:57:30.969Z,13.40
2019-03-09T09:59:59.259Z,13.30
2019-03-09T10:02:27.638Z,13.60
2019-03-09T10:04:56.397Z,14.20
2019-03-09T10:07:24.762Z,14.90
2019-03-09T10:09:53.344Z,15.50
2019-03-09T10:12:22.065Z,16.60
2019-03-09T10:14:50.491Z,17.20
2019-03-09T10:17:18.859Z,16.90
2019-03-09T10:19:47.803Z,17.30
2019-03-09T10:22:16.538Z,17.00
2019-03-09T10:24:44.884Z,17.20
2019-03-09T10:27:13.393Z,16.70
2019-03-09T10:29:42.289Z,15.70
2019-03-09T10:32:10.655Z,15.80
2019-03-09T10:34:39.144Z,15.50
2019-03-09T10:37:07.531Z,16.20
2019-03-09T10:39:36.078Z,15.60
2019-03-09T10:42:04.591Z,15.10
2019-03-09T10:44:33.124Z,15.30
2019-03-09T10:47:02.782Z,14.90
2019-03-09T10:49:31.139Z,14.40
2019-03-09T10:51:59.835Z,14.00
2019-03-09T10:54:35.669Z,13.40
2019-03-09T10:56:58.853Z,13.10
2019-03-09T10:59:27.741Z,12.90
2019-03-09T11:01:56.135Z,12.70
2019-03-09T11:04:27.886Z,12.50
2019-03-09T11:06:55.041Z,12.40
2019-03-09T11:09:23.411Z,12.20
2019-03-09T11:11:52.154Z,11.90
2019-03-09T11:14:20.754Z,12.00
2019-03-09T11:16:50.537Z,12.00
2019-03-09T11:19:19.072Z,11.90
2019-03-09T11:21:47.417Z,12.00
2019-03-09T11:24:15.638Z,12.00
2019-03-09T11:26:44.549Z,12.10
2019-03-09T11:29:12.825Z,12.20
2019-03-09T11:31:41.277Z,12.10
2019-03-09T11:34:09.724Z,12.20
2019-03-09T11:36:38.032Z,12.20
2019-03-09T11:39:07.468Z,12.00
2019-03-09T11:41:36.003Z,12.00
2019-03-09T11:44:04.418Z,12.00
2019-03-09T11:46:32.773Z,12.20
2019-03-09T11:49:02.127Z,12.10
2019-03-09T11:51:30.466Z,12.20
2019-03-09T11:53:58.917Z,12.10
2019-03-09T11:56:27.207Z,11.90
2019-03-09T11:58:55.629Z,12.00
2019-03-09T12:01:24.117Z,11.90
2019-03-09T12:03:52.399Z,12.00
2019-03-09T12:06:20.961Z,12.00
2019-03-09T12:08:51.763Z,12.10
2019-03-09T12:11:20.377Z,11.90
2019-03-09T12:13:49.270Z,11.80
2019-03-09T12:16:18.016Z,11.80
2019-03-09T12:18:46.334Z,11.80
2019-03-09T12:21:14.790Z,11.70
2019-03-09T12:23:43.571Z,11.70
2019-03-09T12:26:12.145Z,11.50
2019-03-09T12:28:40.603Z,11.60
2019-03-09T12:31:09.034Z,11.50
2019-03-09T12:33:37.599Z,11.50
2019-03-09T12:36:06.383Z,11.60
2019-03-09T12:38:34.972Z,11.40
2019-03-09T12:41:03.724Z,10.90
2019-03-09T12:43:32.040Z,10.70
2019-03-09T12:46:00.784Z,10.10
2019-03-09T12:48:29.416Z,9.60
2019-03-09T12:50:58.449Z,9.30
2019-03-09T12:53:27.187Z,9.20
2019-03-09T12:55:55.761Z,9.10
2019-03-09T12:58:24.416Z,9.00
2019-03-09T13:00:54.651Z,9.10
2019-03-09T13:03:23.055Z,8.90
2019-03-09T13:05:51.333Z,9.00
2019-03-09T13:08:19.775Z,8.90
2019-03-09T13:10:48.430Z,8.90
2019-03-09T13:13:17.084Z,8.70
2019-03-09T13:15:45.761Z,8.60
2019-03-09T13:18:14.528Z,8.60
2019-03-09T13:20:42.805Z,8.70
2019-03-09T13:23:11.198Z,8.40
2019-03-09T13:25:39.969Z,8.20
2019-03-09T13:28:08.441Z,7.90
2019-03-09T13:30:37.031Z,7.90
2019-03-09T13:33:05.722Z,7.90
2019-03-09T13:35:34.217Z,7.80
2019-03-09T13:38:03.090Z,7.90
2019-03-09T13:40:31.491Z,7.70
2019-03-09T13:42:59.711Z,7.70
2019-03-09T13:45:28.269Z,7.70
2019-03-09T13:47:56.909Z,7.80
2019-03-09T13:50:25.295Z,7.70
2019-03-09T13:52:53.607Z,7.70
2019-03-09T13:55:22.445Z,7.70
2019-03-09T13:57:51.025Z,7.80
2019-03-09T14:00:19.731Z,7.80
2019-03-09T14:02:48.655Z,7.90
2019-03-09T14:05:17.444Z,7.90
2019-03-09T14:07:45.811Z,8.00
2019-03-09T14:10:14.724Z,8.00
2019-03-09T14:12:43.463Z,7.90
2019-03-09T14:15:13.167Z,7.90
2019-03-09T14:17:41.585Z,7.90
2019-03-09T14:20:10.822Z,7.90
2019-03-09T14:22:39.164Z,8.00
2019-03-09T14:25:08.557Z,7.90
2019-03-09T14:27:37.101Z,8.00
2019-03-09T14:30:06.515Z,8.00
2019-03-09T14:32:35.408Z,8.00
2019-03-09T14:35:05.120Z,7.90
2019-03-09T14:37:33.355Z,7.90
2019-03-09T14:40:02.176Z,7.90
2019-03-09T14:42:30.461Z,8.00
2019-03-09T14:44:58.867Z,7.90
2019-03-09T14:47:27.283Z,7.10
2019-03-09T14:49:55.669Z,6.70
2019-03-09T14:52:23.891Z,6.20
2019-03-09T14:54:52.696Z,5.60
2019-03-09T14:57:21.103Z,5.10
2019-03-09T14:59:51.054Z,5.00
2019-03-09T15:02:19.626Z,4.90
2019-03-09T15:04:48.836Z,5.00
2019-03-09T15:07:17.317Z,5.30
2019-03-09T15:09:45.727Z,5.50
2019-03-09T15:12:14.089Z,5.60
2019-03-09T15:14:42.542Z,5.70
2019-03-09T15:17:11.133Z,5.80
2019-03-09T15:19:39.868Z,5.80
2019-03-09T15:22:08.413Z,5.90
2019-03-09T15:24:37.269Z,6.00
2019-03-09T15:27:05.982Z,6.00
2019-03-09T15:29:34.295Z,6.10
2019-03-09T15:32:02.723Z,6.10
2019-03-09T15:34:31.367Z,6.10
2019-03-09T15:37:00.078Z,6.10
2019-03-09T15:39:29.260Z,6.10
2019-03-09T15:41:58.138Z,6.10
2019-03-09T15:44:26.405Z,6.10
2019-03-09T15:46:55.160Z,6.20
2019-03-09T15:49:23.561Z,6.20
2019-03-09T15:51:52.239Z,6.20
2019-03-09T15:54:20.499Z,6.10
2019-03-09T15:56:48.870Z,6.00
2019-03-09T15:59:17.337Z,5.90
2019-03-09T16:01:45.684Z,5.80
2019-03-09T16:04:14.416Z,5.70
2019-03-09T16:06:42.747Z,5.60
2019-03-09T16:09:11.696Z,5.50
2019-03-09T16:11:44.971Z,5.50
2019-03-09T16:14:10.948Z,5.60
2019-03-09T16:16:39.698Z,5.60
2019-03-09T16:19:08.535Z,5.70
2019-03-09T16:21:37.214Z,5.70
2019-03-09T16:24:05.724Z,5.80
2019-03-09T16:26:34.183Z,5.80
2019-03-09T16:29:02.480Z,5.80
2019-03-09T16:31:31.148Z,5.90
2019-03-09T16:33:59.934Z,5.80
2019-03-09T16:36:28.645Z,5.80
2019-03-09T16:38:57.115Z,5.70
2019-03-09T16:41:25.604Z,5.70
2019-03-09T16:43:54.384Z,5.60
2019-03-09T16:46:22.687Z,5.60
2019-03-09T16:48:51.382Z,5.60
2019-03-09T16:51:19.795Z,5.60
2019-03-09T16:53:48.160Z,5.60
2019-03-09T16:56:17.696Z,5.60
2019-03-09T16:58:46.101Z,5.60
2019-03-09T17:01:14.684Z,5.60
2019-03-09T17:03:43.224Z,5.70
2019-03-09T17:06:11.652Z,5.70
2019-03-09T17:08:39.927Z,5.60
2019-03-09T17:11:08.373Z,5.40
2019-03-09T17:13:36.976Z,5.40
2019-03-09T17:16:05.465Z,5.40
2019-03-09T17:18:33.774Z,5.30
2019-03-09T17:21:02.481Z,5.30
2019-03-09T17:23:30.839Z,5.20
2019-03-09T17:25:59.250Z,5.10
2019-03-09T17:28:27.932Z,5.10
2019-03-09T17:30:56.312Z,5.10
2019-03-09T17:33:24.824Z,5.10
2019-03-09T17:35:53.012Z,5.10
2019-03-09T17:38:21.427Z,5.10
2019-03-09T17:40:49.797Z,5.10
2019-03-09T17:43:18.212Z,5.10
2019-03-09T17:45:46.786Z,5.10
2019-03-09T17:48:15.127Z,5.10
2019-03-09T17:50:43.924Z,5.10
2019-03-09T17:53:14.058Z,5.10
2019-03-09T17:55:42.559Z,5.20
2019-03-09T17:58:11.321Z,5.20
2019-03-09T18:00:43.172Z,5.20
2019-03-09T18:03:11.800Z,5.20
2019-03-09T18:05:40.365Z,5.10
2019-03-09T18:08:09.136Z,5.10
2019-03-09T18:10:45.470Z,5.10
2019-03-09T18:13:14.075Z,5.10
2019-03-09T18:15:43.165Z,5.10
2019-03-09T18:18:11.422Z,5.10
2019-03-09T18:20:40.185Z,5.20
2019-03-09T18:23:08.660Z,5.20
2019-03-09T18:25:37.260Z,5.20
2019-03-09T18:28:05.997Z,5.30
2019-03-09T18:30:34.298Z,5.40
2019-03-09T18:33:02.685Z,5.40
2019-03-09T18:35:31.101Z,5.40
2019-03-09T18:37:59.498Z,5.50
2019-03-09T18:40:28.147Z,5.50
2019-03-09T18:42:56.566Z,5.50
2019-03-09T18:45:25.263Z,5.60
2019-03-09T18:47:53.592Z,5.60
2019-03-09T18:50:22.262Z,5.60
2019-03-09T18:52:52.870Z,5.60
2019-03-09T18:55:21.461Z,5.60
2019-03-09T18:57:49.985Z,5.60
2019-03-09T19:00:18.837Z,5.70
2019-03-09T19:02:47.596Z,5.70
2019-03-09T19:05:15.852Z,5.80
2019-03-09T19:07:44.358Z,5.80
2019-03-09T19:10:13.879Z,5.90
2019-03-09T19:12:42.968Z,5.90
2019-03-09T19:15:12.177Z,5.90
2019-03-09T19:17:40.929Z,5.90
2019-03-09T19:20:10.836Z,5.80
2019-03-09T19:22:39.322Z,5.90
2019-03-09T19:25:08.801Z,5.90
2019-03-09T19:27:37.549Z,5.90
2019-03-09T19:30:09.338Z,5.90
2019-03-09T19:32:37.985Z,5.90
2019-03-09T19:35:07.381Z,5.90
2019-03-09T19:37:35.915Z,5.90
2019-03-09T19:40:04.885Z,6.00
2019-03-09T19:42:33.595Z,6.00
2019-03-09T19:45:02.339Z,6.00
2019-03-09T19:47:30.690Z,6.10
2019-03-09T19:49:59.035Z,6.10
2019-03-09T19:52:28.095Z,6.00
2019-03-09T19:54:56.406Z,6.10
2019-03-09T19:57:25.128Z,6.10
2019-03-09T19:59:53.492Z,6.10
2019-03-09T20:02:22.289Z,6.10
2019-03-09T20:04:50.608Z,6.10
2019-03-09T20:07:18.914Z,6.10
2019-03-09T20:09:47.327Z,6.20
2019-03-09T20:12:15.693Z,6.10
2019-03-09T20:14:44.069Z,6.10
2019-03-09T20:17:12.420Z,6.10
2019-03-09T20:19:41.186Z,6.20
2019-03-09T20:22:09.566Z,6.20
2019-03-09T20:24:37.906Z,6.20
2019-03-09T20:27:06.598Z,6.30
2019-03-09T20:29:35.317Z,6.30
2019-03-09T20:32:05.714Z,6.30
2019-03-09T20:34:34.214Z,6.40
2019-03-09T20:37:02.531Z,6.40
2019-03-09T20:39:31.056Z,6.60
2019-03-09T20:41:59.600Z,6.60
2019-03-09T20:44:27.849Z,6.70
2019-03-09T20:46:56.188Z,6.80
2019-03-09T20:49:24.470Z,6.80
2019-03-09T20:51:52.927Z,6.80
2019-03-09T20:54:21.315Z,6.80
2019-03-09T20:56:50.171Z,6.70
2019-03-09T20:59:18.864Z,6.70
2019-03-09T21:01:47.584Z,6.80
2019-03-09T21:04:16.236Z,6.80
2019-03-09T21:06:44.659Z,6.80
2019-03-09T21:09:12.990Z,6.80
2019-03-09T21:11:41.359Z,6.90
2019-03-09T21:14:09.725Z,6.80
2019-03-09T21:16:38.148Z,6.80
2019-03-09T21:19:06.518Z,6.80
2019-03-09T21:21:35.056Z,6.80
2019-03-09T21:24:04.074Z,6.80
2019-03-09T21:26:32.591Z,6.90
2019-03-09T21:29:02.154Z,6.80
2019-03-09T21:31:30.656Z,6.80
2019-03-09T21:33:59.117Z,6.70
2019-03-09T21:36:27.318Z,6.70
2019-03-09T21:38:55.755Z,6.70
2019-03-09T21:41:24.441Z,6.70
2019-03-09T21:43:52.796Z,6.70
2019-03-09T21:46:21.499Z,6.70
2019-03-09T21:48:50.772Z,6.70
2019-03-09T21:51:22.758Z,6.70
2019-03-09T21:53:51.231Z,6.70
2019-03-09T21:56:19.961Z,6.60
2019-03-09T21:58:48.942Z,6.60
2019-03-09T22:01:17.200Z,6.60
2019-03-09T22:03:45.702Z,6.60
2019-03-09T22:06:14.691Z,6.60
2019-03-09T22:08:43.661Z,6.60
2019-03-09T22:11:12.419Z,6.70
2019-03-09T22:13:41.314Z,6.70
2019-03-09T22:16:09.768Z,6.70
2019-03-09T22:18:38.383Z,6.80
2019-03-09T22:21:07.180Z,6.80
2019-03-09T22:23:43.724Z,6.70
2019-03-09T22:26:06.229Z,6.80
2019-03-09T22:28:34.698Z,6.80
2019-03-09T22:31:03.202Z,6.80
2019-03-09T22:33:31.455Z,6.70
2019-03-09T22:36:00.205Z,6.70
2019-03-09T22:38:28.635Z,6.70
2019-03-09T22:40:57.231Z,6.70
2019-03-09T22:43:25.570Z,6.80
2019-03-09T22:45:54.004Z,6.70
2019-03-09T22:48:22.356Z,6.80
2019-03-09T22:50:50.799Z,6.70
2019-03-09T22:53:19.770Z,6.70
2019-03-09T22:55:48.097Z,6.70
2019-03-09T22:58:16.486Z,6.70
2019-03-09T23:00:45.125Z,6.60
2019-03-09T23:03:13.895Z,6.60
2019-03-09T23:05:42.933Z,6.60
2019-03-09T23:08:11.495Z,6.60
2019-03-09T23:10:40.236Z,6.60
2019-03-09T23:13:08.605Z,6.60
2019-03-09T23:15:36.913Z,6.50
2019-03-09T23:18:05.278Z,6.50
2019-03-09T23:20:34.119Z,6.50
2019-03-09T23:23:02.676Z,6.60
2019-03-09T23:25:31.168Z,6.60
2019-03-09T23:27:59.661Z,6.60
2019-03-09T23:30:28.273Z,6.60
2019-03-09T23:32:56.645Z,6.60
2019-03-09T23:35:25.109Z,6.60
2019-03-09T23:37:53.617Z,6.60
2019-03-09T23:40:22.305Z,6.60
2019-03-09T23:42:50.789Z,6.60
2019-03-09T23:45:19.426Z,6.60
2019-03-09T23:47:48.421Z,6.60
2019-03-09T23:50:17.134Z,6.60
2019-03-09T23:52:45.870Z,6.60
2019-03-09T23:55:21.821Z,6.60
2019-03-09T23:57:45.817Z,6.60
